Time;durP1;ratioP1;P1;durP2;ratioP2;P2;SDS_P1;SDS_P2;PMS_P1;PMS_P2;Temp;Humidity;BMP_temperature;BMP_pressure;BME280_temperature;BME280_humidity;BME280_pressure;Samples;Min_cycle;Max_cycle;Signal;HPM_P1;HPM_P2
2021/04/28 00:00:45;;;;;;;24.15;13.98;;;3.30;83.50;;;;;;5073660;28;20386;-75
2021/04/28 00:03:11;;;;;;;22.85;13.13;;;3.30;83.50;;;;;;5073472;28;20047;-75
2021/04/28 00:05:38;;;;;;;20.80;14.02;;;3.30;83.80;;;;;;5073637;28;20100;-75
2021/04/28 00:08:05;;;;;;;24.00;13.63;;;3.30;83.80;;;;;;5072687;28;20033;-75
2021/04/28 00:10:35;;;;;;;23.63;13.70;;;3.30;83.80;;;;;;5073724;28;20484;-77
2021/04/28 00:13:01;;;;;;;23.63;13.10;;;3.30;83.60;;;;;;5073978;28;20066;-75
2021/04/28 00:15:29;;;;;;;21.25;14.55;;;3.30;83.70;;;;;;5073681;28;20036;-75
2021/04/28 00:17:57;;;;;;;25.13;13.88;;;3.30;83.70;;;;;;5073646;28;20101;-75
2021/04/28 00:30:52;;;;;;;19.98;13.40;;;3.30;83.80;;;;;;5172776;27;20400;-74
2021/04/28 00:33:18;;;;;;;23.63;14.10;;;3.10;83.00;;;;;;5172834;27;20030;-74
2021/04/28 00:35:44;;;;;;;17.75;11.18;;;3.10;83.30;;;;;;5172583;27;20038;-74
2021/04/28 00:38:10;;;;;;;21.13;13.52;;;3.10;83.40;;;;;;5172584;27;20444;-74
2021/04/28 00:40:38;;;;;;;16.80;10.40;;;3.10;83.70;;;;;;5172532;27;20039;-74
2021/04/28 00:43:04;;;;;;;17.25;12.23;;;3.10;83.80;;;;;;5172631;27;20030;-74
2021/04/28 00:45:33;;;;;;;16.02;11.23;;;3.10;83.80;;;;;;5153823;27;20027;-79
2021/04/28 00:48:00;;;;;;;19.55;12.65;;;3.10;83.80;;;;;;5172553;27;20025;-75
2021/04/28 00:50:47;;;;;;;18.88;11.98;;;3.10;83.70;;;;;;5172242;27;20026;-75
2021/04/28 00:53:15;;;;;;;20.05;12.45;;;3.10;83.70;;;;;;5172832;27;20030;-74
2021/04/28 00:55:42;;;;;;;17.05;11.68;;;3.10;83.70;;;;;;5172268;27;20102;-75
2021/04/28 00:58:07;;;;;;;22.02;12.98;;;3.10;83.60;;;;;;5172306;27;20022;-75
2021/04/28 01:00:34;;;;;;;18.98;12.70;;;3.10;83.60;;;;;;5171975;27;20026;-75
2021/04/28 01:03:00;;;;;;;20.20;12.95;;;3.10;83.60;;;;;;5171887;27;20029;-74
2021/04/28 01:05:26;;;;;;;20.45;13.60;;;3.10;83.70;;;;;;5172378;27;20444;-75
2021/04/28 01:07:52;;;;;;;21.38;13.30;;;3.00;83.70;;;;;;5171908;27;20027;-74
2021/04/28 01:10:21;;;;;;;24.10;14.35;;;3.00;83.60;;;;;;5172058;27;20121;-75
2021/04/28 01:12:48;;;;;;;22.25;13.98;;;3.10;83.70;;;;;;5171647;27;20054;-75
2021/04/28 01:15:17;;;;;;;25.73;15.25;;;3.00;83.60;;;;;;5153333;27;20026;-74
2021/04/28 01:17:43;;;;;;;27.73;14.82;;;3.00;83.70;;;;;;5153140;27;20033;-74
2021/04/28 01:20:11;;;;;;;23.20;14.32;;;3.00;83.70;;;;;;5171681;27;20066;-74
2021/04/28 01:22:41;;;;;;;26.70;16.30;;;2.90;83.60;;;;;;5171742;27;20046;-75
2021/04/28 01:25:11;;;;;;;24.80;15.95;;;2.90;83.60;;;;;;5171991;27;20055;-74
2021/04/28 01:27:39;;;;;;;24.08;15.25;;;2.90;83.50;;;;;;5171579;27;20023;-75
2021/04/28 01:30:07;;;;;;;21.35;13.18;;;2.90;84.00;;;;;;5168202;27;20054;-74
2021/04/28 01:32:34;;;;;;;22.02;14.57;;;2.90;83.50;;;;;;5140042;27;20027;-75
2021/04/28 01:35:01;;;;;;;21.10;13.95;;;2.80;83.60;;;;;;5158545;27;20062;-74
2021/04/28 01:37:29;;;;;;;24.77;14.85;;;2.80;84.20;;;;;;5157605;27;20026;-74
2021/04/28 01:39:56;;;;;;;21.33;14.65;;;2.80;83.60;;;;;;5157258;27;20456;-75
2021/04/28 01:42:23;;;;;;;22.83;13.95;;;2.80;83.60;;;;;;5157228;27;20087;-74
2021/04/28 01:44:50;;;;;;;22.85;13.75;;;2.80;83.70;;;;;;5157454;27;20031;-75
2021/04/28 01:47:18;;;;;;;23.42;14.82;;;2.80;83.70;;;;;;5138893;27;20065;-74
2021/04/28 01:49:45;;;;;;;23.30;13.57;;;2.80;83.70;;;;;;5157276;27;20026;-74
2021/04/28 01:52:11;;;;;;;22.65;14.60;;;2.80;83.80;;;;;;5157540;27;20027;-74
2021/04/28 01:54:37;;;;;;;25.38;14.43;;;2.80;83.80;;;;;;5139167;27;20361;-74
2021/04/28 01:57:04;;;;;;;22.05;13.75;;;2.80;84.00;;;;;;5157297;27;20083;-74
2021/04/28 01:59:32;;;;;;;27.33;15.10;;;2.80;84.00;;;;;;5156843;27;20038;-74
2021/04/28 02:01:57;;;;;;;25.33;15.30;;;2.80;84.00;;;;;;5156877;27;20034;-74
2021/04/28 02:04:23;;;;;;;26.95;15.05;;;2.80;83.90;;;;;;5157099;27;20023;-75
2021/04/28 02:06:51;;;;;;;26.48;16.00;;;2.80;83.90;;;;;;5157264;27;20152;-75
2021/04/28 02:09:17;;;;;;;27.25;17.20;;;2.80;83.80;;;;;;5138562;27;20509;-74
2021/04/28 02:11:43;;;;;;;40.63;24.88;;;2.80;83.70;;;;;;5156851;27;20071;-74
2021/04/28 02:14:14;;;;;;;47.90;27.88;;;2.80;83.70;;;;;;5156872;27;20026;-74
2021/04/28 02:16:41;;;;;;;45.88;24.08;;;2.70;83.80;;;;;;5138117;27;20023;-75
2021/04/28 02:19:09;;;;;;;41.03;23.30;;;2.70;83.70;;;;;;5156793;27;20105;-75
2021/04/28 02:21:39;;;;;;;40.47;23.80;;;2.70;83.80;;;;;;5157063;27;20031;-74
2021/04/28 02:24:08;;;;;;;32.95;20.20;;;2.70;83.80;;;;;;5156952;27;20379;-74
2021/04/28 02:26:35;;;;;;;31.95;18.30;;;2.60;83.90;;;;;;5156664;27;20050;-75
2021/04/28 02:29:01;;;;;;;22.50;13.30;;;2.60;84.10;;;;;;5156149;27;20511;-74
2021/04/28 02:31:27;;;;;;;16.52;11.13;;;2.60;84.50;;;;;;5156780;27;20031;-74
2021/04/28 02:33:53;;;;;;;24.48;14.35;;;2.60;84.70;;;;;;5156522;27;20057;-74
2021/04/28 02:36:19;;;;;;;24.83;14.73;;;2.70;84.80;;;;;;5156203;27;20465;-74
2021/04/28 02:38:51;;;;;;;23.27;12.77;;;2.70;84.90;;;;;;5156062;27;20135;-74
2021/04/28 02:41:17;;;;;;;19.13;13.13;;;2.80;84.80;;;;;;5156239;27;20027;-75
2021/04/28 02:43:43;;;;;;;19.48;12.98;;;2.90;85.30;;;;;;5155758;27;20102;-75
2021/04/28 02:46:13;;;;;;;23.85;15.13;;;2.90;84.50;;;;;;5156028;27;20475;-74
2021/04/28 02:48:42;;;;;;;20.02;12.60;;;2.90;84.10;;;;;;5156751;27;20109;-75
2021/04/28 02:51:08;;;;;;;18.92;12.05;;;3.00;84.00;;;;;;5156495;27;20019;-75
2021/04/28 02:53:36;;;;;;;20.48;11.45;;;3.00;83.80;;;;;;5156430;27;20034;-75
2021/04/28 02:56:02;;;;;;;17.20;10.45;;;3.00;83.70;;;;;;5137242;27;20029;-75
2021/04/28 02:58:28;;;;;;;17.42;10.50;;;3.10;83.70;;;;;;5156167;27;20106;-75
2021/04/28 03:00:56;;;;;;;14.82;9.90;;;3.10;83.80;;;;;;5155822;27;20447;-75
2021/04/28 03:03:22;;;;;;;17.45;10.60;;;3.10;83.70;;;;;;5155987;27;20050;-75
2021/04/28 03:05:52;;;;;;;17.65;10.90;;;3.20;83.60;;;;;;5155737;27;20094;-75
2021/04/28 03:08:22;;;;;;;19.45;10.93;;;3.20;83.40;;;;;;5155750;27;20098;-75
2021/04/28 03:10:49;;;;;;;16.08;10.80;;;3.30;83.30;;;;;;5155776;27;20058;-75
2021/04/28 03:13:16;;;;;;;20.63;12.10;;;3.30;83.10;;;;;;5155833;27;20034;-75
2021/04/28 03:15:43;;;;;;;18.48;11.85;;;3.30;82.90;;;;;;5155485;27;20054;-76
2021/04/28 03:18:11;;;;;;;15.95;9.43;;;3.40;82.90;;;;;;5155604;27;20026;-75
2021/04/28 03:20:38;;;;;;;19.42;11.98;;;3.40;82.70;;;;;;5155802;27;20113;-75
2021/04/28 03:23:06;;;;;;;12.27;8.63;;;3.40;82.70;;;;;;5155776;27;20022;-75
2021/04/28 03:25:32;;;;;;;13.38;9.18;;;3.50;82.60;;;;;;5155645;27;20068;-75
2021/04/28 03:27:58;;;;;;;13.68;8.95;;;3.50;82.50;;;;;;5155541;27;20520;-75
2021/04/28 03:30:24;;;;;;;17.35;11.43;;;3.50;82.30;;;;;;5156027;27;20050;-75
2021/04/28 03:32:50;;;;;;;11.23;7.82;;;3.60;82.10;;;;;;5155272;27;20023;-75
2021/04/28 03:35:16;;;;;;;16.42;11.38;;;3.70;82.00;;;;;;5155448;27;20055;-75
2021/04/28 03:37:43;;;;;;;37.80;18.15;;;3.70;81.80;;;;;;5155303;27;20171;-77
2021/04/28 03:40:09;;;;;;;24.65;14.02;;;3.80;81.60;;;;;;5155235;27;20031;-75
2021/04/28 03:42:35;;;;;;;60.33;28.85;;;3.80;81.40;;;;;;5155362;27;20039;-75
2021/04/28 03:45:01;;;;;;;118.65;46.83;;;3.90;81.30;;;;;;5154840;27;20030;-75
2021/04/28 03:47:27;;;;;;;125.63;49.80;;;3.90;81.10;;;;;;5155186;27;20026;-75
2021/04/28 03:49:52;;;;;;;86.07;39.55;;;4.00;81.00;;;;;;5155117;27;20027;-76
2021/04/28 03:52:18;;;;;;;34.40;19.17;;;4.00;80.90;;;;;;5154847;27;20031;-75
2021/04/28 03:54:44;;;;;;;31.40;16.98;;;4.10;80.70;;;;;;5154934;27;20426;-75
2021/04/28 03:57:10;;;;;;;40.65;22.17;;;4.10;80.50;;;;;;5154986;27;20050;-75
2021/04/28 03:59:36;;;;;;;37.53;21.27;;;4.10;80.30;;;;;;5155105;27;20026;-75
2021/04/28 04:02:03;;;;;;;38.88;21.33;;;4.20;80.10;;;;;;5154699;27;20023;-75
2021/04/28 04:04:29;;;;;;;38.63;22.45;;;4.20;80.00;;;;;;5154818;27;20384;-75
2021/04/28 04:06:55;;;;;;;20.70;12.93;;;4.20;79.80;;;;;;5155114;27;20031;-76
2021/04/28 04:09:21;;;;;;;20.88;14.45;;;4.20;79.90;;;;;;5127106;27;20038;-75
2021/04/28 04:11:48;;;;;;;33.35;18.25;;;4.30;80.10;;;;;;5120999;28;20027;-76
2021/04/28 04:14:15;;;;;;;22.80;15.25;;;4.30;80.20;;;;;;5115824;27;20026;-76
2021/04/28 04:16:40;;;;;;;25.08;15.25;;;4.30;80.10;;;;;;5134285;27;20062;-77
2021/04/28 04:19:06;;;;;;;26.00;17.00;;;4.40;80.20;;;;;;5115570;28;20051;-76
2021/04/28 04:21:32;;;;;;;29.98;17.73;;;4.50;80.20;;;;;;5133786;28;20023;-76
2021/04/28 04:23:58;;;;;;;24.83;16.55;;;4.60;80.30;;;;;;5134019;28;20031;-75
2021/04/28 04:26:24;;;;;;;24.55;15.55;;;4.60;80.30;;;;;;5115635;28;20027;-74
2021/04/28 04:28:49;;;;;;;24.00;15.25;;;4.70;80.30;;;;;;5133630;28;20050;-76
2021/04/28 04:31:15;;;;;;;27.95;15.60;;;4.80;80.20;;;;;;5133652;28;20114;-75
2021/04/28 04:33:41;;;;;;;25.35;16.55;;;4.90;80.00;;;;;;5151497;27;20022;-75
2021/04/28 04:36:07;;;;;;;27.23;16.40;;;5.00;80.60;;;;;;5154146;27;20065;-76
2021/04/28 04:38:32;;;;;;;30.02;15.80;;;5.10;80.10;;;;;;5154688;27;20425;-77
2021/04/28 04:40:58;;;;;;;29.33;16.40;;;5.10;80.00;;;;;;5154184;27;20031;-76
2021/04/28 04:43:24;;;;;;;27.80;17.13;;;5.20;80.00;;;;;;5154318;27;20027;-76
2021/04/28 04:45:49;;;;;;;28.88;16.25;;;5.30;80.00;;;;;;5154597;27;20030;-78
2021/04/28 04:48:15;;;;;;;23.88;14.70;;;5.40;79.90;;;;;;5154395;27;20113;-76
2021/04/28 04:50:41;;;;;;;24.65;15.63;;;5.50;80.40;;;;;;5154336;27;20098;-76
2021/04/28 04:53:09;;;;;;;23.10;14.98;;;5.60;79.60;;;;;;5154148;27;20122;-75
2021/04/28 04:55:36;;;;;;;30.65;18.13;;;5.70;79.30;;;;;;5135688;27;20019;-76
2021/04/28 04:58:01;;;;;;;24.48;17.35;;;5.70;79.10;;;;;;5135517;27;20026;-76
2021/04/28 05:00:27;;;;;;;30.45;17.48;;;5.80;79.10;;;;;;5151984;27;20039;-75
2021/04/28 05:02:53;;;;;;;24.38;16.02;;;5.80;79.00;;;;;;5153744;27;20030;-76
2021/04/28 05:05:20;;;;;;;24.90;15.57;;;5.90;78.90;;;;;;5154829;27;20033;-77
2021/04/28 05:07:45;;;;;;;35.47;19.17;;;6.00;78.70;;;;;;5158299;27;20048;-76
2021/04/28 05:10:13;;;;;;;35.38;21.58;;;6.00;78.50;;;;;;5131395;27;20019;-76
2021/04/28 05:12:39;;;;;;;36.65;21.63;;;6.10;78.30;;;;;;5148340;27;20027;-76
2021/04/28 05:15:07;;;;;;;32.80;19.88;;;6.20;78.70;;;;;;5146280;27;20034;-77
2021/04/28 05:17:33;;;;;;;32.75;19.33;;;6.20;78.00;;;;;;5147271;27;20023;-75
2021/04/28 05:19:59;;;;;;;21.83;14.43;;;6.30;77.80;;;;;;5125557;27;20019;-77
2021/04/28 05:22:26;;;;;;;21.80;14.88;;;6.30;77.80;;;;;;5145075;27;20430;-76
2021/04/28 05:24:53;;;;;;;23.98;14.60;;;6.30;77.60;;;;;;5127549;27;20019;-76
2021/04/28 05:27:19;;;;;;;22.58;15.13;;;6.40;77.60;;;;;;5148984;27;20468;-76
2021/04/28 05:29:44;;;;;;;20.40;14.70;;;6.50;77.50;;;;;;5145431;27;20044;-77
2021/04/28 05:32:10;;;;;;;21.48;14.23;;;6.50;77.40;;;;;;5139563;27;20481;-76
2021/04/28 05:34:36;;;;;;;22.08;14.65;;;6.60;77.10;;;;;;5129018;27;20106;-76
2021/04/28 05:37:04;;;;;;;22.88;14.10;;;6.70;76.90;;;;;;5135749;27;20551;-76
2021/04/28 05:39:31;;;;;;;24.00;14.73;;;6.70;76.90;;;;;;5157644;27;20019;-76
2021/04/28 05:41:57;;;;;;;21.85;13.18;;;6.80;76.60;;;;;;5154482;27;20030;-76
2021/04/28 05:44:22;;;;;;;22.92;14.15;;;6.90;76.40;;;;;;5129273;27;20027;-77
2021/04/28 05:46:48;;;;;;;25.80;13.50;;;7.00;76.40;;;;;;5156484;27;20030;-75
2021/04/28 05:49:14;;;;;;;18.95;12.82;;;7.10;76.20;;;;;;5151199;27;20031;-78
2021/04/28 05:51:42;;;;;;;21.85;13.10;;;7.20;76.00;;;;;;5128259;27;20027;-76
2021/04/28 05:54:08;;;;;;;20.20;13.95;;;7.30;76.30;;;;;;5126178;27;20023;-76
2021/04/28 05:56:36;;;;;;;18.60;12.63;;;7.40;75.50;;;;;;5137128;27;20031;-76
2021/04/28 05:59:02;;;;;;;17.23;10.80;;;7.50;75.10;;;;;;5136178;27;20073;-76
2021/04/28 06:01:28;;;;;;;18.25;11.93;;;7.70;74.60;;;;;;5136145;27;20039;-75
2021/04/28 06:03:54;;;;;;;17.70;12.32;;;7.80;74.40;;;;;;5136985;27;20023;-76
2021/04/28 06:06:19;;;;;;;15.85;10.75;;;7.90;74.10;;;;;;5155959;27;20023;-75
2021/04/28 06:08:45;;;;;;;17.77;11.55;;;8.10;73.60;;;;;;5156064;27;20476;-77
2021/04/28 06:11:11;;;;;;;26.23;11.82;;;8.20;73.20;;;;;;5156338;27;20023;-76
2021/04/28 06:13:37;;;;;;;17.85;10.57;;;8.30;72.60;;;;;;5156341;27;20031;-76
2021/04/28 06:16:03;;;;;;;14.73;10.90;;;8.40;72.30;;;;;;5143724;27;20043;-77
2021/04/28 06:18:29;;;;;;;16.92;9.13;;;8.50;71.80;;;;;;5153880;27;20106;-76
2021/04/28 06:20:55;;;;;;;12.88;9.95;;;8.60;70.90;;;;;;5145230;27;20031;-76
2021/04/28 06:23:20;;;;;;;16.13;10.43;;;8.70;70.30;;;;;;5143610;27;20068;-76
2021/04/28 06:25:48;;;;;;;16.63;10.43;;;8.80;70.20;;;;;;5143632;27;20020;-75
2021/04/28 06:28:14;;;;;;;14.30;8.98;;;8.80;70.00;;;;;;5144469;27;20018;-76
2021/04/28 06:30:40;;;;;;;14.65;9.13;;;8.90;69.30;;;;;;5145065;27;20045;-77
2021/04/28 06:33:06;;;;;;;15.80;10.05;;;9.00;68.30;;;;;;5145219;27;20102;-76
2021/04/28 06:35:31;;;;;;;14.15;10.20;;;9.10;67.70;;;;;;5146261;27;20027;-77
2021/04/28 06:37:57;;;;;;;19.63;11.32;;;9.20;67.40;;;;;;5151771;27;20034;-76
2021/04/28 06:40:24;;;;;;;20.70;10.93;;;9.30;67.20;;;;;;5143822;27;20035;-76
2021/04/28 06:42:51;;;;;;;20.17;10.77;;;9.50;66.90;;;;;;5135455;27;20055;-76
2021/04/28 06:45:17;;;;;;;17.60;10.55;;;9.50;66.20;;;;;;5135103;27;20079;-75
2021/04/28 06:47:42;;;;;;;16.48;9.32;;;9.60;65.60;;;;;;5138167;27;20019;-77
2021/04/28 06:50:10;;;;;;;24.55;11.05;;;9.60;64.80;;;;;;5143411;27;20460;-77
2021/04/28 06:52:36;;;;;;;18.25;10.55;;;9.70;64.30;;;;;;5145389;27;20023;-77
2021/04/28 06:55:03;;;;;;;17.63;9.82;;;9.80;63.90;;;;;;5144650;27;20019;-76
2021/04/28 06:57:29;;;;;;;22.60;11.27;;;9.80;63.30;;;;;;5143115;27;20068;-77
2021/04/28 06:59:55;;;;;;;15.82;8.30;;;9.90;63.60;;;;;;5144295;27;20085;-78
2021/04/28 07:02:21;;;;;;;15.77;8.82;;;10.00;62.20;;;;;;5125724;27;20027;-76
2021/04/28 07:04:47;;;;;;;13.85;8.38;;;10.10;61.70;;;;;;5143103;27;20574;-76
2021/04/28 07:07:12;;;;;;;14.98;9.88;;;10.20;61.40;;;;;;5145718;27;20471;-76
2021/04/28 07:09:38;;;;;;;15.93;9.50;;;10.30;61.00;;;;;;5144127;27;20027;-77
2021/04/28 07:12:04;;;;;;;14.88;8.60;;;10.40;60.60;;;;;;5144570;27;20104;-77
2021/04/28 07:14:29;;;;;;;12.98;7.10;;;10.50;59.80;;;;;;5142597;27;20030;-77
2021/04/28 07:16:55;;;;;;;15.25;7.57;;;10.60;59.00;;;;;;5144108;27;20038;-78
2021/04/28 07:19:21;;;;;;;12.43;8.02;;;10.70;58.20;;;;;;5144130;27;20418;-77
2021/04/28 07:21:46;;;;;;;16.20;9.30;;;10.80;57.90;;;;;;5142938;27;20375;-77
2021/04/28 07:24:13;;;;;;;13.77;8.32;;;10.90;57.50;;;;;;5142926;27;20064;-77
2021/04/28 07:26:39;;;;;;;10.18;6.28;;;10.90;56.90;;;;;;5144138;27;20034;-76
2021/04/28 07:29:05;;;;;;;12.63;7.03;;;11.00;56.50;;;;;;5143750;27;20058;-76
2021/04/28 07:31:31;;;;;;;10.25;5.28;;;11.10;57.00;;;;;;5142652;27;20384;-77
2021/04/28 07:33:58;;;;;;;9.60;5.57;;;11.20;55.90;;;;;;5143919;27;20050;-77
2021/04/28 07:36:23;;;;;;;13.45;8.23;;;11.30;55.00;;;;;;5144084;27;20384;-76
2021/04/28 07:38:49;;;;;;;21.92;14.00;;;11.40;55.10;;;;;;5142318;27;20027;-77
2021/04/28 07:41:15;;;;;;;26.42;17.50;;;11.60;55.80;;;;;;5144079;27;20056;-78
2021/04/28 07:43:41;;;;;;;30.23;17.58;;;11.80;56.70;;;;;;5143777;27;20019;-77
2021/04/28 07:46:07;;;;;;;31.73;16.63;;;11.90;57.40;;;;;;5142062;27;20023;-77
2021/04/28 07:48:33;;;;;;;36.85;17.73;;;12.10;57.80;;;;;;5142156;27;20026;-76
2021/04/28 07:51:01;;;;;;;25.52;17.83;;;12.30;58.00;;;;;;5144879;27;20030;-75
2021/04/28 07:53:30;;;;;;;30.42;17.83;;;12.50;57.70;;;;;;5142353;27;20026;-77
2021/04/28 07:55:56;;;;;;;28.00;17.38;;;12.70;57.00;;;;;;5143083;27;20360;-77
2021/04/28 07:58:22;;;;;;;21.33;13.48;;;12.80;56.50;;;;;;5143289;27;20495;-77
2021/04/28 08:00:47;;;;;;;21.30;13.50;;;12.80;55.80;;;;;;5142154;27;20097;-77
2021/04/28 08:03:13;;;;;;;23.10;13.85;;;12.80;55.30;;;;;;5141471;27;20111;-76
2021/04/28 08:05:39;;;;;;;24.20;15.43;;;12.90;55.30;;;;;;5138942;27;20465;-76
2021/04/28 08:08:05;;;;;;;20.05;13.88;;;13.10;54.90;;;;;;5142687;27;20540;-75
2021/04/28 08:10:32;;;;;;;23.88;14.93;;;13.20;54.60;;;;;;5115252;28;20023;-76
2021/04/28 08:12:58;;;;;;;23.83;13.88;;;13.50;54.40;;;;;;5133772;27;20034;-76
2021/04/28 08:15:24;;;;;;;30.35;16.13;;;13.90;53.70;;;;;;5133864;27;20038;-76
2021/04/28 08:17:50;;;;;;;23.52;16.02;;;14.40;53.30;;;;;;5134395;27;20109;-76
2021/04/28 08:20:16;;;;;;;24.02;15.10;;;14.90;52.80;;;;;;5133649;28;20403;-77
2021/04/28 08:22:42;;;;;;;17.75;13.05;;;15.40;52.00;;;;;;5133964;28;20027;-76
2021/04/28 08:25:11;;;;;;;21.88;12.43;;;16.00;50.90;;;;;;5133451;28;20481;-76
2021/04/28 08:27:37;;;;;;;20.85;11.50;;;16.50;49.30;;;;;;5146387;27;20022;-76
2021/04/28 08:30:09;;;;;;;17.38;11.50;;;16.80;48.10;;;;;;5154637;27;20328;-77
2021/04/28 08:32:34;;;;;;;19.98;11.07;;;16.70;47.00;;;;;;5154449;27;20357;-76
2021/04/28 08:35:00;;;;;;;17.85;9.73;;;16.60;47.00;;;;;;5154574;27;20026;-77
2021/04/28 08:37:26;;;;;;;16.73;10.10;;;16.60;46.70;;;;;;5154529;27;20022;-76
2021/04/28 08:39:52;;;;;;;14.32;9.80;;;16.80;46.50;;;;;;5154688;27;20037;-76
2021/04/28 08:42:18;;;;;;;17.13;11.38;;;17.40;45.90;;;;;;5158073;27;20110;-76
2021/04/28 08:44:45;;;;;;;15.43;10.88;;;18.00;44.90;;;;;;5152399;27;20023;-76
2021/04/28 08:47:12;;;;;;;13.65;9.23;;;18.10;43.90;;;;;;5158688;27;20071;-77
2021/04/28 08:49:38;;;;;;;16.85;9.45;;;18.40;43.60;;;;;;5158330;27;20051;-77
2021/04/28 08:52:05;;;;;;;20.67;10.95;;;19.00;43.20;;;;;;5139226;27;20022;-75
2021/04/28 08:54:31;;;;;;;21.95;9.75;;;19.80;42.50;;;;;;5137437;27;20469;-76
2021/04/28 08:56:58;;;;;;;20.42;10.80;;;20.40;41.50;;;;;;5137468;27;20023;-78
2021/04/28 08:59:25;;;;;;;18.95;10.98;;;20.60;40.50;;;;;;5137285;27;20027;-76
2021/04/28 09:01:50;;;;;;;13.75;8.88;;;20.80;39.90;;;;;;5137590;27;20083;-76
2021/04/28 09:04:19;;;;;;;16.63;10.30;;;21.00;39.50;;;;;;5137508;27;20019;-75
2021/04/28 09:06:45;;;;;;;14.80;9.93;;;21.50;39.10;;;;;;5137425;27;20376;-76
2021/04/28 09:09:16;;;;;;;13.50;8.52;;;22.30;38.50;;;;;;5119037;27;20380;-76
2021/04/28 09:11:50;;;;;;;13.75;8.63;;;23.20;37.50;;;;;;5137486;27;20028;-76
2021/04/28 09:14:17;;;;;;;16.08;9.32;;;24.10;37.10;;;;;;5151914;27;20031;-76
2021/04/28 09:17:05;;;;;;;16.75;7.10;;;25.10;36.20;;;;;;5157876;27;20550;-76
2021/04/28 09:19:38;;;;;;;12.55;6.97;;;26.00;33.50;;;;;;5158308;27;20027;-76
2021/04/28 09:22:10;;;;;;;10.57;5.28;;;26.60;33.00;;;;;;5139277;27;20079;-76
2021/04/28 09:24:45;;;;;;;8.13;5.10;;;26.90;31.50;;;;;;5138851;27;20031;-78
2021/04/28 09:27:25;;;;;;;8.13;4.00;;;27.20;31.30;;;;;;5139547;27;20406;-76
2021/04/28 09:29:53;;;;;;;6.55;4.05;;;27.80;29.90;;;;;;5157993;27;20046;-76
2021/04/28 09:32:18;;;;;;;6.90;3.67;;;28.30;29.60;;;;;;5139020;27;20389;-76
2021/04/28 09:34:44;;;;;;;3.78;2.97;;;28.70;29.20;;;;;;5139527;27;20027;-76
2021/04/28 09:37:13;;;;;;;8.43;3.42;;;29.10;28.70;;;;;;5143149;27;20074;-76
2021/04/28 09:39:50;;;;;;;6.88;3.60;;;29.70;28.50;;;;;;5154285;27;20451;-76
2021/04/28 09:42:19;;;;;;;27.13;5.93;;;30.00;27.90;;;;;;5129140;27;20031;-77
2021/04/28 09:44:49;;;;;;;16.73;4.60;;;30.30;27.70;;;;;;5126920;27;20039;-76
2021/04/28 09:47:20;;;;;;;7.47;3.75;;;30.50;27.30;;;;;;5148158;27;20040;-77
2021/04/28 09:49:51;;;;;;;9.77;4.18;;;30.50;27.00;;;;;;5145640;27;20038;-76
2021/04/28 09:52:41;;;;;;;5.03;3.80;;;30.60;26.60;;;;;;5145084;27;20030;-76
2021/04/28 09:55:13;;;;;;;9.70;5.05;;;30.60;26.20;;;;;;5148629;27;20019;-77
2021/04/28 09:57:47;;;;;;;16.85;6.45;;;30.70;26.10;;;;;;5151047;27;20023;-77
2021/04/28 10:00:17;;;;;;;10.20;5.32;;;30.80;26.10;;;;;;5157045;27;20037;-77
2021/04/28 10:03:00;;;;;;;7.80;4.90;;;31.00;26.10;;;;;;5155890;27;20111;-76
2021/04/28 10:05:28;;;;;;;12.18;5.68;;;31.30;26.10;;;;;;5147345;27;20027;-77
2021/04/28 10:08:16;;;;;;;7.55;5.32;;;31.60;25.90;;;;;;5146616;27;20053;-78
2021/04/28 10:10:43;;;;;;;41.00;8.38;;;31.60;25.60;;;;;;5137869;27;20377;-75
2021/04/28 10:13:09;;;;;;;28.60;5.97;;;31.70;25.80;;;;;;5138915;27;20063;-77
2021/04/28 10:15:36;;;;;;;21.40;6.18;;;31.60;25.50;;;;;;5144364;27;20022;-77
2021/04/28 10:18:07;;;;;;;25.90;6.43;;;31.40;25.30;;;;;;5127483;27;20106;-77
2021/04/28 10:20:34;;;;;;;31.13;5.88;;;31.60;25.20;;;;;;5146387;27;20030;-77
2021/04/28 10:23:07;;;;;;;10.93;4.45;;;31.70;25.20;;;;;;5146959;27;20065;-77
2021/04/28 10:25:33;;;;;;;34.90;7.18;;;31.70;24.90;;;;;;5136824;27;20026;-77
2021/04/28 10:28:01;;;;;;;36.72;7.05;;;31.90;24.80;;;;;;5146933;27;20118;-79
2021/04/28 10:30:27;;;;;;;10.50;6.63;;;31.70;24.60;;;;;;5144190;27;20043;-77
2021/04/28 10:32:55;;;;;;;10.07;6.00;;;31.70;24.90;;;;;;5147246;27;20030;-77
2021/04/28 10:35:25;;;;;;;15.55;6.20;;;31.80;24.80;;;;;;5144282;27;20087;-75
2021/04/28 10:37:52;;;;;;;12.27;6.53;;;32.10;25.00;;;;;;5146593;27;20022;-78
2021/04/28 10:40:21;;;;;;;7.57;5.00;;;32.10;24.90;;;;;;5144448;27;20043;-77
2021/04/28 10:42:48;;;;;;;9.73;5.82;;;32.40;24.70;;;;;;5145831;27;20023;-76
2021/04/28 10:45:22;;;;;;;8.90;5.00;;;32.30;24.60;;;;;;5144290;27;20030;-77
2021/04/28 10:47:50;;;;;;;11.75;6.00;;;32.30;24.50;;;;;;5143736;27;20120;-76
2021/04/28 10:50:22;;;;;;;11.65;6.28;;;32.30;24.50;;;;;;5144783;27;20049;-78
2021/04/28 10:53:14;;;;;;;11.95;5.28;;;32.30;24.40;;;;;;5145256;27;20081;-77
2021/04/28 10:55:58;;;;;;;7.63;4.97;;;32.60;24.10;;;;;;5132283;27;20035;-76
2021/04/28 10:58:34;;;;;;;11.95;3.90;;;32.70;24.10;;;;;;5145841;27;20019;-77
2021/04/28 11:01:00;;;;;;;10.75;4.70;;;32.80;24.00;;;;;;5144296;27;20484;-77
2021/04/28 11:03:41;;;;;;;12.30;4.57;;;32.90;24.00;;;;;;5143136;27;20034;-76
2021/04/28 11:09:07;;;;;;;13.50;4.88;;;33.10;23.60;;;;;;5145795;27;20034;-77
2021/04/28 11:11:45;;;;;;;13.68;5.40;;;33.30;23.60;;;;;;5143717;27;20023;-77
2021/04/28 11:14:21;;;;;;;11.77;5.22;;;33.40;23.80;;;;;;5142940;27;20531;-77
2021/04/28 11:16:53;;;;;;;17.35;5.68;;;33.50;23.80;;;;;;5142846;27;20383;-77
2021/04/28 11:19:33;;;;;;;12.00;6.10;;;33.50;23.80;;;;;;5144007;27;20114;-77
2021/04/28 11:22:19;;;;;;;8.88;4.50;;;33.50;23.40;;;;;;5143537;27;20030;-76
2021/04/28 11:25:10;;;;;;;10.68;4.47;;;33.50;23.20;;;;;;5143961;27;20026;-77
2021/04/28 11:28:00;;;;;;;7.13;3.63;;;33.50;23.40;;;;;;5144406;27;20027;-78
2021/04/28 11:30:38;;;;;;;7.90;3.22;;;33.60;23.40;;;;;;5143913;27;20456;-78
2021/04/28 11:33:10;;;;;;;8.93;5.10;;;33.70;23.30;;;;;;5144411;27;20019;-78
2021/04/28 11:35:39;;;;;;;17.02;5.25;;;33.80;23.50;;;;;;5146134;27;20105;-78
2021/04/28 11:38:08;;;;;;;7.47;4.50;;;33.80;23.30;;;;;;5142668;27;20038;-77
2021/04/28 11:40:52;;;;;;;6.53;3.45;;;33.90;23.30;;;;;;5142511;27;20388;-76
2021/04/28 11:43:22;;;;;;;28.60;5.38;;;34.00;23.30;;;;;;5141986;27;20027;-76
2021/04/28 11:45:50;;;;;;;11.77;5.43;;;34.40;23.60;;;;;;5142190;27;20377;-77
2021/04/28 11:48:21;;;;;;;13.07;6.28;;;34.60;23.50;;;;;;5140920;27;20019;-77
2021/04/28 11:50:54;;;;;;;6.05;5.30;;;34.50;23.20;;;;;;5133398;27;20081;-78
2021/04/28 11:53:22;;;;;;;7.68;3.90;;;34.40;23.20;;;;;;5133657;27;20038;-76
2021/04/28 11:55:48;;;;;;;8.55;3.72;;;34.50;23.40;;;;;;5134115;27;20023;-76
2021/04/28 11:58:25;;;;;;;7.63;3.20;;;34.70;23.50;;;;;;5134032;27;20046;-76
2021/04/28 12:01:13;;;;;;;5.95;3.42;;;35.00;23.60;;;;;;5133941;27;20484;-77
2021/04/28 12:03:56;;;;;;;6.95;4.20;;;35.30;23.50;;;;;;5134424;27;20465;-78
2021/04/28 12:06:37;;;;;;;16.38;5.38;;;35.40;23.30;;;;;;5134049;27;20464;-78
2021/04/28 12:09:09;;;;;;;25.50;5.80;;;35.50;23.50;;;;;;5115652;27;20031;-78
2021/04/28 12:11:40;;;;;;;45.72;7.47;;;35.50;23.40;;;;;;5151647;27;20026;-78
2021/04/28 12:14:06;;;;;;;16.02;6.13;;;35.50;23.30;;;;;;5133751;27;20027;-83
2021/04/28 12:16:32;;;;;;;16.35;4.90;;;35.30;23.20;;;;;;5134552;27;20031;-77
2021/04/28 12:22:45;;;;;;;7.28;3.80;;;35.20;23.20;;;;;;5154792;27;20033;-85
2021/04/28 12:25:12;;;;;;;10.18;4.05;;;35.10;23.10;;;;;;5153848;27;20384;-74
2021/04/28 12:27:45;;;;;;;10.85;3.33;;;35.10;23.10;;;;;;5143576;27;20181;-81
2021/04/28 12:30:20;;;;;;;12.50;4.10;;;35.20;23.00;;;;;;5133231;28;20541;-79
2021/04/28 12:32:48;;;;;;;13.60;3.90;;;35.10;23.00;;;;;;5137702;27;20259;-78
2021/04/28 12:35:16;;;;;;;8.48;3.78;;;35.20;22.90;;;;;;5144907;27;20027;-80
2021/04/28 12:38:12;;;;;;;6.15;3.70;;;35.20;22.80;;;;;;5144231;27;20023;-80
2021/04/28 12:40:48;;;;;;;22.15;4.68;;;35.50;22.70;;;;;;5133241;28;20073;-80
2021/04/28 12:43:17;;;;;;;6.57;3.42;;;35.50;22.70;;;;;;5135215;27;20027;-80
2021/04/28 12:45:43;;;;;;;19.63;5.25;;;35.40;22.80;;;;;;5134955;27;20024;-81
2021/04/28 12:48:12;;;;;;;25.17;5.75;;;35.30;22.80;;;;;;5145592;27;20014;-81
2021/04/28 12:50:39;;;;;;;13.82;5.13;;;35.10;23.00;;;;;;5141303;27;20027;-80
2021/04/28 12:53:10;;;;;;;17.15;4.82;;;35.00;23.10;;;;;;5133442;28;20072;-82
2021/04/28 12:55:41;;;;;;;7.30;4.20;;;35.00;23.10;;;;;;5115116;28;20062;-80
2021/04/28 12:58:11;;;;;;;12.98;4.18;;;35.00;23.10;;;;;;5133488;28;20020;-81
2021/04/28 13:00:51;;;;;;;5.85;3.42;;;35.10;23.10;;;;;;5133964;28;20356;-80